createdAt,value
2022-12-11T00:00:34.184Z,77.2
2022-12-11T00:01:34.207Z,77.2
2022-12-11T00:02:34.259Z,77.1
2022-12-11T00:03:34.314Z,77.2
2022-12-11T00:04:34.196Z,77.1
2022-12-11T00:05:34.171Z,77.1
2022-12-11T00:06:34.172Z,77
2022-12-11T00:07:34.190Z,77
2022-12-11T00:08:34.188Z,77.1
2022-12-11T00:09:34.159Z,77
2022-12-11T00:10:37.690Z,77.1
2022-12-11T00:11:34.171Z,77.3
2022-12-11T00:12:34.168Z,77.4
2022-12-11T00:13:34.181Z,77.2
2022-12-11T00:14:34.173Z,77.4
2022-12-11T00:15:34.151Z,77.2
2022-12-11T00:16:34.250Z,77.1
2022-12-11T00:17:34.165Z,77.1
2022-12-11T00:18:34.165Z,77.1
2022-12-11T00:19:34.167Z,77.2
2022-12-11T00:20:34.161Z,77.3
2022-12-11T00:21:34.162Z,77.5
2022-12-11T00:22:34.174Z,77.3
2022-12-11T00:23:34.166Z,77.3
2022-12-11T00:24:34.155Z,77.3
2022-12-11T00:25:34.166Z,77.4
2022-12-11T00:26:34.162Z,77.2
2022-12-11T00:27:34.182Z,77.3
2022-12-11T00:28:34.166Z,77.4
2022-12-11T00:29:34.161Z,77.2
2022-12-11T00:30:34.166Z,77.4
2022-12-11T00:31:34.222Z,77.3
2022-12-11T00:32:37.572Z,77.4
2022-12-11T00:33:34.166Z,77.3
2022-12-11T00:34:34.171Z,77.2
2022-12-11T00:35:34.153Z,77.2
2022-12-11T00:36:34.156Z,77.4
2022-12-11T00:37:34.240Z,77.5
2022-12-11T00:38:34.184Z,77.5
2022-12-11T00:39:34.162Z,77.5
2022-12-11T00:40:34.163Z,77.7
2022-12-11T00:41:34.157Z,77.6
2022-12-11T00:42:34.171Z,77.7
2022-12-11T00:43:34.162Z,77.7
2022-12-11T00:44:34.217Z,77.7
2022-12-11T00:45:34.208Z,77.8
2022-12-11T00:46:34.151Z,77.9
2022-12-11T00:47:34.165Z,77.8
2022-12-11T00:48:34.186Z,77.8
2022-12-11T00:49:34.166Z,78
2022-12-11T00:50:34.164Z,78
2022-12-11T00:51:34.166Z,78.1
2022-12-11T00:52:34.169Z,78.3
2022-12-11T00:53:34.159Z,78.2
2022-12-11T00:54:34.159Z,78.2
2022-12-11T00:55:34.168Z,78.3
2022-12-11T00:56:34.154Z,78.1
2022-12-11T00:57:34.151Z,78.2
2022-12-11T00:58:34.184Z,78.1
2022-12-11T00:59:34.165Z,78
2022-12-11T01:00:34.169Z,78.1
2022-12-11T01:01:34.207Z,78.1
2022-12-11T01:02:34.172Z,78.2
2022-12-11T01:03:34.206Z,78.2
2022-12-11T01:04:34.177Z,78.1
2022-12-11T01:05:34.155Z,78.1
2022-12-11T01:06:34.150Z,78
2022-12-11T01:07:34.166Z,77.8
2022-12-11T01:08:38.580Z,77.9
2022-12-11T01:09:34.181Z,77.9
2022-12-11T01:10:34.220Z,77.9
2022-12-11T01:11:34.145Z,77.9
2022-12-11T01:12:34.154Z,78
2022-12-11T01:13:34.175Z,77.9
2022-12-11T01:14:34.147Z,78.1
2022-12-11T01:15:37.434Z,78.2
2022-12-11T01:16:34.219Z,78
2022-12-11T01:17:34.179Z,78.1
2022-12-11T01:18:34.190Z,78.1
2022-12-11T01:19:34.148Z,78.2
2022-12-11T01:20:34.145Z,78.2
2022-12-11T01:21:34.224Z,78.1
2022-12-11T01:22:34.141Z,78
2022-12-11T01:23:34.141Z,78
2022-12-11T01:24:34.168Z,78
2022-12-11T01:25:34.156Z,78
2022-12-11T01:26:34.145Z,77.8
2022-12-11T01:27:34.139Z,78
2022-12-11T01:28:44.152Z,78.1
2022-12-11T01:29:34.153Z,78.2
2022-12-11T01:30:34.284Z,78.1
2022-12-11T01:31:34.156Z,78.1
2022-12-11T01:32:34.429Z,78.1
2022-12-11T01:33:34.188Z,78.1
2022-12-11T01:34:34.139Z,78.1
2022-12-11T01:35:34.139Z,78.1
2022-12-11T01:36:34.152Z,78
2022-12-11T01:37:34.149Z,78.1
2022-12-11T01:38:34.162Z,78
2022-12-11T01:39:34.147Z,78.2
2022-12-11T01:40:34.155Z,78
2022-12-11T01:41:34.156Z,78.1
2022-12-11T01:42:34.145Z,78
2022-12-11T01:43:34.159Z,78.1
2022-12-11T01:44:34.135Z,78.1
2022-12-11T01:45:34.162Z,78.2
2022-12-11T01:46:34.157Z,78.3
2022-12-11T01:47:34.140Z,78.3
2022-12-11T01:48:39.248Z,78.4
2022-12-11T01:49:34.160Z,78.5
2022-12-11T01:50:34.138Z,78.3
2022-12-11T01:51:34.141Z,78.4
2022-12-11T01:52:34.151Z,78.4
2022-12-11T01:53:34.150Z,78.5
2022-12-11T01:54:34.140Z,78.5
2022-12-11T01:55:34.153Z,78.4
2022-12-11T01:56:34.177Z,78.5
2022-12-11T01:57:34.172Z,78.6
2022-12-11T01:58:34.151Z,78.4
2022-12-11T01:59:34.151Z,78.6
2022-12-11T02:00:34.137Z,78.8
2022-12-11T02:01:34.190Z,78.5
2022-12-11T02:02:34.229Z,78.9
2022-12-11T02:03:34.157Z,78.9
2022-12-11T02:04:34.167Z,78.8
2022-12-11T02:05:34.138Z,78.8
2022-12-11T02:06:34.152Z,78.7
2022-12-11T02:07:34.149Z,78.7
2022-12-11T02:08:34.147Z,78.7
2022-12-11T02:09:34.157Z,78.9
2022-12-11T02:10:34.160Z,78.9
2022-12-11T02:11:34.138Z,78.9
2022-12-11T02:12:34.151Z,79
2022-12-11T02:13:34.156Z,79.2
2022-12-11T02:14:34.144Z,79
2022-12-11T02:15:34.139Z,79
2022-12-11T02:16:34.150Z,78.9
2022-12-11T02:17:34.170Z,79
2022-12-11T02:18:34.166Z,79
2022-12-11T02:19:34.143Z,79
2022-12-11T02:20:34.136Z,79.1
2022-12-11T02:22:34.141Z,79.3
2022-12-11T02:23:34.144Z,79.2
2022-12-11T02:24:34.151Z,79.2
2022-12-11T02:25:34.137Z,79.2
2022-12-11T02:26:34.143Z,79.3
2022-12-11T02:27:34.132Z,79.5
2022-12-11T02:28:49.947Z,79.3
2022-12-11T02:29:34.188Z,79.1
2022-12-11T02:30:34.141Z,79.2
2022-12-11T02:31:34.262Z,79.3
2022-12-11T02:32:34.245Z,79.5
2022-12-11T02:33:34.151Z,79.4
2022-12-11T02:34:34.133Z,79.3
2022-12-11T02:35:34.143Z,79.4
2022-12-11T02:36:34.148Z,79.5
2022-12-11T02:37:34.158Z,79.5
2022-12-11T02:38:34.142Z,79.5
2022-12-11T02:39:34.138Z,79.6
2022-12-11T02:40:34.147Z,79.6
2022-12-11T02:41:34.148Z,79.6
2022-12-11T02:42:34.139Z,79.5
2022-12-11T02:43:34.153Z,79.4
2022-12-11T02:44:34.144Z,79.4
2022-12-11T02:45:34.206Z,79.4
2022-12-11T02:46:34.141Z,79.5
2022-12-11T02:47:34.141Z,79.6
2022-12-11T02:48:34.179Z,79.7
2022-12-11T02:49:34.130Z,79.6
2022-12-11T02:50:34.134Z,79.4
2022-12-11T02:51:34.142Z,79.6
2022-12-11T02:52:34.129Z,79.6
2022-12-11T02:53:34.136Z,79.6
2022-12-11T02:54:34.134Z,79.6
2022-12-11T02:55:34.140Z,79.4
2022-12-11T02:56:34.166Z,79.5
2022-12-11T02:57:34.131Z,79.4
2022-12-11T02:58:34.150Z,79.7
2022-12-11T02:59:34.179Z,79.7
2022-12-11T03:00:34.135Z,79.7
2022-12-11T03:01:34.190Z,79.7
2022-12-11T03:02:34.200Z,79.8
2022-12-11T03:03:34.167Z,79.8
2022-12-11T03:04:34.136Z,79.9
2022-12-11T03:05:34.150Z,80
2022-12-11T03:06:34.144Z,79.9
2022-12-11T03:07:34.126Z,80.1
2022-12-11T03:08:34.158Z,80
2022-12-11T03:09:34.143Z,80
2022-12-11T03:10:34.144Z,80.2
2022-12-11T03:11:34.132Z,80.1
2022-12-11T03:12:34.211Z,80
2022-12-11T03:13:34.182Z,80
2022-12-11T03:14:34.126Z,80.3
2022-12-11T03:15:34.134Z,80.3
2022-12-11T03:17:34.132Z,80.3
2022-12-11T03:18:34.143Z,80.3
2022-12-11T03:19:34.139Z,80.2
2022-12-11T03:20:34.132Z,80.2
2022-12-11T03:21:34.142Z,80.2
2022-12-11T03:22:34.140Z,80.2
2022-12-11T03:23:34.133Z,80.1
2022-12-11T03:24:34.137Z,80.1
2022-12-11T03:25:34.130Z,79.9
2022-12-11T03:26:34.134Z,80.1
2022-12-11T03:27:34.139Z,80.2
2022-12-11T03:28:55.987Z,80.3
2022-12-11T03:29:34.162Z,80.3
2022-12-11T03:30:34.268Z,80.4
2022-12-11T03:31:34.136Z,80.4
2022-12-11T03:32:34.126Z,80.4
2022-12-11T03:33:34.142Z,80.4
2022-12-11T03:34:34.122Z,80.4
2022-12-11T03:35:34.140Z,80.5
2022-12-11T03:36:34.127Z,80.4
2022-12-11T03:37:34.156Z,80.4
2022-12-11T03:38:34.150Z,80.5
2022-12-11T03:39:34.128Z,80.5
2022-12-11T03:40:34.136Z,80.5
2022-12-11T03:41:34.156Z,80.5
2022-12-11T03:42:34.118Z,80.5
2022-12-11T03:43:34.127Z,80.6
2022-12-11T03:44:34.143Z,80.5
2022-12-11T03:45:34.135Z,80.5
2022-12-11T03:46:34.203Z,80.5
2022-12-11T03:48:34.160Z,80.6
2022-12-11T03:49:34.128Z,80.6
2022-12-11T03:50:34.151Z,80.3
2022-12-11T03:51:34.144Z,80.5
2022-12-11T03:52:34.146Z,80.4
2022-12-11T03:53:34.133Z,80.6
2022-12-11T03:54:34.134Z,80.7
2022-12-11T03:55:34.134Z,80.8
2022-12-11T03:56:34.129Z,80.7
2022-12-11T03:57:34.124Z,80.7
2022-12-11T03:58:34.144Z,80.6
2022-12-11T03:59:34.121Z,80.8
2022-12-11T04:00:34.122Z,80.6
2022-12-11T04:01:34.210Z,80.7
2022-12-11T04:02:34.125Z,80.8
2022-12-11T04:03:34.140Z,80.8
2022-12-11T04:04:34.176Z,80.6
2022-12-11T04:05:34.106Z,80.7
2022-12-11T04:06:34.127Z,80.7
2022-12-11T04:07:34.150Z,80.8
2022-12-11T04:08:34.148Z,80.8
2022-12-11T04:09:34.121Z,80.9
2022-12-11T04:10:34.129Z,80.8
2022-12-11T04:11:34.116Z,80.7
2022-12-11T04:12:34.126Z,80.6
2022-12-11T04:13:34.161Z,80.7
2022-12-11T04:14:34.213Z,80.5
2022-12-11T04:15:34.199Z,80.4
2022-12-11T04:16:34.135Z,80.5
2022-12-11T04:17:34.123Z,80.5
2022-12-11T04:18:34.155Z,80.6
2022-12-11T04:19:34.122Z,80.4
2022-12-11T04:20:34.122Z,80.6
2022-12-11T04:21:39.233Z,80.6
2022-12-11T04:22:34.108Z,80.7
2022-12-11T04:23:34.137Z,80.6
2022-12-11T04:24:34.119Z,80.8
2022-12-11T04:25:34.125Z,80.7
2022-12-11T04:26:34.127Z,80.6
2022-12-11T04:27:34.147Z,80.6
2022-12-11T04:29:34.119Z,80.8
2022-12-11T04:30:34.618Z,80.9
2022-12-11T04:31:34.173Z,80.8
2022-12-11T04:32:34.165Z,80.7
2022-12-11T04:33:34.126Z,80.7
2022-12-11T04:34:34.125Z,80.8
2022-12-11T04:35:34.107Z,80.9
2022-12-11T04:36:34.136Z,80.9
2022-12-11T04:37:34.120Z,80.9
2022-12-11T04:38:34.116Z,81.1
2022-12-11T04:39:34.112Z,81.1
2022-12-11T04:40:34.119Z,81
2022-12-11T04:41:34.117Z,81.1
2022-12-11T04:42:34.130Z,81.1
2022-12-11T04:43:34.128Z,81
2022-12-11T04:44:34.122Z,81
2022-12-11T04:45:34.113Z,81
2022-12-11T04:46:34.234Z,81
2022-12-11T04:47:34.112Z,81
2022-12-11T04:48:34.160Z,80.8
2022-12-11T04:49:34.123Z,80.9
2022-12-11T04:50:34.110Z,81
2022-12-11T04:51:34.119Z,81.2
2022-12-11T04:52:34.111Z,81.1
2022-12-11T04:53:35.831Z,81
2022-12-11T04:54:34.117Z,81.1
2022-12-11T04:55:34.105Z,81
2022-12-11T04:56:34.117Z,81
2022-12-11T04:57:34.127Z,80.9
2022-12-11T04:58:34.131Z,81
2022-12-11T04:59:34.110Z,81.1
2022-12-11T05:00:34.118Z,81
2022-12-11T05:01:34.169Z,81.1
2022-12-11T05:02:34.120Z,81.1
2022-12-11T05:03:34.148Z,81.2
2022-12-11T05:04:34.143Z,81.2
2022-12-11T05:05:34.110Z,81.3
2022-12-11T05:06:34.110Z,81.2
2022-12-11T05:07:34.121Z,81.2
2022-12-11T05:08:34.118Z,81.3
2022-12-11T05:09:34.109Z,81.5
2022-12-11T05:10:34.117Z,81.4
2022-12-11T05:11:34.121Z,81.5
2022-12-11T05:12:34.119Z,81.6
2022-12-11T05:13:34.123Z,81.6
2022-12-11T05:14:34.102Z,81.6
2022-12-11T05:15:34.116Z,81.5
2022-12-11T05:16:34.111Z,81.5
2022-12-11T05:17:34.116Z,81.5
2022-12-11T05:18:34.151Z,81.5
2022-12-11T05:19:34.109Z,81.5
2022-12-11T05:20:34.186Z,81.6
2022-12-11T05:21:35.312Z,81.7
2022-12-11T05:22:34.102Z,81.5
2022-12-11T05:23:34.130Z,81.6
2022-12-11T05:24:34.126Z,81.6
2022-12-11T05:25:34.160Z,81.6
2022-12-11T05:26:34.119Z,81.3
2022-12-11T05:27:34.138Z,81.3
2022-12-11T05:28:34.096Z,81.3
2022-12-11T05:29:34.107Z,81.4
2022-12-11T05:30:34.121Z,81.4
2022-12-11T05:31:34.165Z,81.5
2022-12-11T05:33:34.110Z,81.4
2022-12-11T05:34:34.170Z,81.3
2022-12-11T05:35:34.117Z,81.4
2022-12-11T05:36:34.122Z,81.6
2022-12-11T05:37:34.110Z,81.5
2022-12-11T05:38:34.120Z,81.4
2022-12-11T05:40:34.107Z,81.6
2022-12-11T05:41:34.115Z,81.5
2022-12-11T05:42:34.132Z,81.5
2022-12-11T05:43:34.138Z,81.6
2022-12-11T05:44:34.118Z,81.7
2022-12-11T05:45:34.119Z,81.8
2022-12-11T05:46:34.142Z,81.7
2022-12-11T05:47:34.098Z,81.8
2022-12-11T05:48:34.111Z,81.8
2022-12-11T05:49:34.102Z,81.6
2022-12-11T05:50:34.121Z,81.7
2022-12-11T05:51:34.123Z,81.8
2022-12-11T05:52:34.133Z,81.8
2022-12-11T05:53:34.099Z,81.7
2022-12-11T05:54:34.119Z,81.6
2022-12-11T05:55:34.119Z,81.7
2022-12-11T05:56:34.122Z,81.6
2022-12-11T05:57:34.102Z,81.7
2022-12-11T05:58:34.112Z,81.6
2022-12-11T05:59:34.103Z,81.7
2022-12-11T06:00:36.222Z,81.8
2022-12-11T06:01:34.129Z,81.6
2022-12-11T06:02:34.193Z,81.8
2022-12-11T06:03:34.126Z,81.6
2022-12-11T06:04:34.099Z,81.6
2022-12-11T06:05:34.119Z,81.5
2022-12-11T06:06:34.117Z,81.5
2022-12-11T06:07:34.093Z,81.5
2022-12-11T06:08:34.141Z,81.3
2022-12-11T06:09:34.099Z,81.6
2022-12-11T06:10:34.108Z,81.4
2022-12-11T06:11:34.122Z,81.2
2022-12-11T06:12:34.095Z,81.4
2022-12-11T06:13:34.109Z,81.5
2022-12-11T06:14:34.099Z,81.5
2022-12-11T06:15:34.098Z,81.6
2022-12-11T06:16:34.214Z,81.5
2022-12-11T06:17:34.096Z,81.6
2022-12-11T06:18:34.142Z,81.6
2022-12-11T06:19:36.921Z,81.6
2022-12-11T06:20:34.096Z,81.7
2022-12-11T06:21:34.113Z,81.6
2022-12-11T06:22:34.101Z,81.5
2022-12-11T06:23:34.093Z,81.6
2022-12-11T06:24:34.101Z,81.6
2022-12-11T06:25:34.103Z,81.4
2022-12-11T06:26:34.130Z,81.6
2022-12-11T06:27:34.108Z,81.6
2022-12-11T06:28:34.093Z,81.7
2022-12-11T06:29:34.517Z,81.8
2022-12-11T06:30:38.799Z,81.9
2022-12-11T06:31:34.244Z,81.9
2022-12-11T06:32:34.281Z,82.1
2022-12-11T06:33:34.385Z,82
2022-12-11T06:34:34.417Z,82.1
2022-12-11T06:35:38.701Z,81.9
2022-12-11T06:36:34.124Z,82
2022-12-11T06:37:34.096Z,82
2022-12-11T06:38:34.111Z,82.1
2022-12-11T06:39:44.112Z,82.1
2022-12-11T06:40:34.114Z,82.1
2022-12-11T06:41:34.103Z,82.1
2022-12-11T06:42:34.081Z,82.2
2022-12-11T06:43:34.101Z,82.1
2022-12-11T06:44:34.086Z,82
2022-12-11T06:45:34.171Z,82.2
2022-12-11T06:46:34.121Z,82.3
2022-12-11T06:47:34.108Z,82.3
2022-12-11T06:48:34.105Z,82.2
2022-12-11T06:49:34.120Z,82.2
2022-12-11T06:50:34.099Z,82.2
2022-12-11T06:51:34.155Z,82.2
2022-12-11T06:52:34.087Z,82.2
2022-12-11T06:53:34.103Z,82.2
2022-12-11T06:54:34.109Z,82.2
2022-12-11T06:55:34.121Z,82.3
2022-12-11T06:56:34.094Z,82.3
2022-12-11T06:57:34.108Z,82.2
2022-12-11T06:58:34.129Z,82.2
2022-12-11T06:59:34.091Z,82.2
2022-12-11T07:00:34.093Z,82.2
2022-12-11T07:01:34.089Z,82.2
2022-12-11T07:02:34.132Z,82.3
2022-12-11T07:03:34.117Z,82.1
2022-12-11T07:04:34.109Z,82.2
2022-12-11T07:05:34.103Z,82.1
2022-12-11T07:06:34.102Z,82.1
2022-12-11T07:07:34.121Z,82.2
2022-12-11T07:08:34.120Z,82.3
2022-12-11T07:09:34.109Z,82.3
2022-12-11T07:10:34.115Z,82.2
2022-12-11T07:11:34.099Z,82.2
2022-12-11T07:12:34.100Z,82.1
2022-12-11T07:13:34.117Z,82.2
2022-12-11T07:14:34.098Z,82.2
2022-12-11T07:15:37.676Z,82.3
2022-12-11T07:16:34.140Z,82.4
2022-12-11T07:17:34.106Z,82.3
2022-12-11T07:18:34.146Z,82.3
2022-12-11T07:19:34.094Z,82.3
2022-12-11T07:20:34.081Z,82.3
2022-12-11T07:21:34.096Z,82.4
2022-12-11T07:22:34.091Z,82.3
2022-12-11T07:23:34.087Z,82.3
2022-12-11T07:24:34.091Z,82.3
2022-12-11T07:25:34.094Z,82.3
2022-12-11T07:26:34.109Z,82.2
2022-12-11T07:27:34.111Z,82.2
2022-12-11T07:28:34.131Z,82.1
2022-12-11T07:29:34.100Z,82.1
2022-12-11T07:30:34.089Z,82.2
2022-12-11T07:31:34.136Z,82.4
2022-12-11T07:32:34.173Z,82.4
2022-12-11T07:33:34.094Z,82.5
2022-12-11T07:34:34.085Z,82.4
2022-12-11T07:35:34.098Z,82.4
2022-12-11T07:36:34.091Z,82.5
2022-12-11T07:37:34.090Z,82.5
2022-12-11T07:38:34.168Z,82.5
2022-12-11T07:39:49.946Z,82.7
2022-12-11T07:40:34.096Z,82.6
2022-12-11T07:41:34.092Z,82.5
2022-12-11T07:42:34.116Z,82.8
2022-12-11T07:43:34.105Z,82.6
2022-12-11T07:44:34.099Z,82.6
2022-12-11T07:45:34.149Z,82.6
2022-12-11T07:46:34.100Z,82.5
2022-12-11T07:47:34.092Z,82.5
2022-12-11T07:48:34.131Z,82.7
2022-12-11T07:49:34.082Z,82.6
2022-12-11T07:50:39.552Z,82.4
2022-12-11T07:51:34.109Z,82.8
2022-12-11T07:52:34.086Z,82.6
2022-12-11T07:53:34.077Z,82.7
2022-12-11T07:54:34.077Z,82.7
2022-12-11T07:55:34.094Z,82.7
2022-12-11T07:56:34.176Z,82.7
2022-12-11T07:57:34.084Z,82.7
2022-12-11T07:58:34.090Z,82.6
2022-12-11T07:59:34.093Z,82.9
2022-12-11T08:00:34.107Z,82.8
2022-12-11T08:01:34.106Z,82.9
2022-12-11T08:03:34.119Z,82.7
2022-12-11T08:04:34.079Z,82.7
2022-12-11T08:05:34.077Z,82.5
2022-12-11T08:06:34.105Z,82.5
2022-12-11T08:07:34.080Z,82.7
2022-12-11T08:08:34.086Z,82.6
2022-12-11T08:09:34.118Z,82.7
2022-12-11T08:10:34.083Z,82.5
2022-12-11T08:11:34.089Z,82.6
2022-12-11T08:12:34.085Z,82.5
2022-12-11T08:13:34.111Z,82.6
2022-12-11T08:14:34.090Z,82.5
2022-12-11T08:15:34.076Z,82.4
2022-12-11T08:16:34.124Z,82.3
2022-12-11T08:17:39.865Z,82.5
2022-12-11T08:18:34.090Z,82.5
2022-12-11T08:19:34.085Z,82.5
2022-12-11T08:20:34.080Z,82.6
2022-12-11T08:21:34.098Z,82.5
2022-12-11T08:22:34.126Z,82.5
2022-12-11T08:23:34.102Z,82.4
2022-12-11T08:24:34.094Z,82.5
2022-12-11T08:25:34.111Z,82.5
2022-12-11T08:26:34.096Z,82.6
2022-12-11T08:27:34.068Z,82.6
2022-12-11T08:28:34.068Z,82.6
2022-12-11T08:29:34.091Z,82.6
2022-12-11T08:30:34.151Z,82.6
2022-12-11T08:31:34.090Z,82.5
2022-12-11T08:32:34.089Z,82.6
2022-12-11T08:33:34.094Z,82.7
2022-12-11T08:34:34.234Z,82.5
2022-12-11T08:35:34.070Z,82.6
2022-12-11T08:36:34.077Z,82.6
2022-12-11T08:37:34.099Z,82.6
2022-12-11T08:38:34.099Z,82.6
2022-12-11T08:39:55.997Z,82.6
2022-12-11T08:40:34.127Z,82.7
2022-12-11T08:41:34.082Z,82.8
2022-12-11T08:42:34.082Z,82.6
2022-12-11T08:43:34.099Z,82.4
2022-12-11T08:44:34.089Z,82.4
2022-12-11T08:45:34.080Z,82.6
2022-12-11T08:46:34.109Z,82.6
2022-12-11T08:47:34.078Z,82.7
2022-12-11T08:48:34.097Z,82.8
2022-12-11T08:49:34.704Z,82.7
2022-12-11T08:50:34.087Z,82.6
2022-12-11T08:51:34.079Z,82.8
2022-12-11T08:52:34.083Z,82.8
2022-12-11T08:53:34.083Z,82.9
2022-12-11T08:54:34.092Z,82.9
2022-12-11T08:55:34.079Z,82.7
2022-12-11T08:56:34.078Z,82.7
2022-12-11T08:57:34.089Z,82.7
2022-12-11T08:58:34.097Z,82.6
2022-12-11T08:59:34.077Z,82.5
2022-12-11T09:00:34.072Z,82.6
2022-12-11T09:01:34.170Z,82.8
2022-12-11T09:02:34.132Z,82.8
2022-12-11T09:03:34.089Z,82.8
2022-12-11T09:04:34.082Z,82.6
2022-12-11T09:05:34.090Z,82.7
2022-12-11T09:06:34.099Z,82.7
2022-12-11T09:07:34.077Z,82.7
2022-12-11T09:08:34.114Z,82.7
2022-12-11T09:09:34.058Z,82.6
2022-12-11T09:10:34.068Z,82.7
2022-12-11T09:11:34.106Z,82.7
2022-12-11T09:12:34.072Z,82.9
2022-12-11T09:13:34.089Z,82.9
2022-12-11T09:14:34.085Z,82.9
2022-12-11T09:15:34.242Z,82.8
2022-12-11T09:16:34.129Z,83
2022-12-11T09:17:34.211Z,83
2022-12-11T09:18:34.117Z,82.8
2022-12-11T09:19:34.097Z,82.9
2022-12-11T09:20:34.349Z,82.9
2022-12-11T09:21:34.116Z,82.9
2022-12-11T09:22:34.209Z,83.1
2022-12-11T09:23:34.083Z,83.1
2022-12-11T09:24:34.077Z,82.9
2022-12-11T09:25:34.075Z,82.8
2022-12-11T09:26:34.093Z,82.8
2022-12-11T09:27:34.113Z,82.8
2022-12-11T09:28:34.134Z,82.8
2022-12-11T09:29:34.089Z,83
2022-12-11T09:30:34.154Z,83.1
2022-12-11T09:31:34.062Z,83
2022-12-11T09:32:34.083Z,82.8
2022-12-11T09:33:34.078Z,82.8
2022-12-11T09:34:34.076Z,82.7
2022-12-11T09:35:34.132Z,82.7
2022-12-11T09:36:34.059Z,82.5
2022-12-11T09:37:34.073Z,82.3
2022-12-11T09:38:34.078Z,82.1
2022-12-11T09:39:26.966Z,82.3
2022-12-11T09:40:34.085Z,82.3
2022-12-11T09:41:34.111Z,82.3
2022-12-11T09:42:34.103Z,82.4
2022-12-11T09:43:34.108Z,82.1
2022-12-11T09:44:34.066Z,82.2
2022-12-11T09:45:34.072Z,82.2
2022-12-11T09:46:34.553Z,82.2
2022-12-11T09:47:34.081Z,82.3
2022-12-11T09:48:34.179Z,82.2
2022-12-11T09:49:34.064Z,82.1
2022-12-11T09:50:34.065Z,82
2022-12-11T09:51:34.078Z,82.1
2022-12-11T09:52:34.081Z,82
2022-12-11T09:53:34.557Z,82
2022-12-11T09:54:34.067Z,81.9
2022-12-11T09:55:34.074Z,82.1
2022-12-11T09:56:34.147Z,82.1
2022-12-11T09:57:34.076Z,82
2022-12-11T09:58:34.075Z,81.9
2022-12-11T09:59:34.088Z,81.8
2022-12-11T10:00:34.068Z,81.9
2022-12-11T10:01:34.114Z,81.7
2022-12-11T10:02:34.128Z,81.4
2022-12-11T10:03:34.062Z,81.5
2022-12-11T10:04:34.063Z,81.5
2022-12-11T10:05:34.073Z,81.7
2022-12-11T10:06:34.069Z,81.6
2022-12-11T10:07:34.082Z,81.4
2022-12-11T10:08:34.112Z,81.2
2022-12-11T10:09:34.058Z,81.2
2022-12-11T10:10:34.069Z,81.2
2022-12-11T10:11:34.178Z,81.2
2022-12-11T10:12:34.090Z,81
2022-12-11T10:13:34.083Z,81.1
2022-12-11T10:14:34.121Z,81
2022-12-11T10:15:34.136Z,81.1
2022-12-11T10:16:34.098Z,80.8
2022-12-11T10:17:34.060Z,80.8
2022-12-11T10:18:34.073Z,81.1
2022-12-11T10:19:34.071Z,81
2022-12-11T10:20:34.295Z,81
2022-12-11T10:21:34.066Z,81.4
2022-12-11T10:22:34.066Z,81.2
2022-12-11T10:23:34.069Z,80.9
2022-12-11T10:25:34.060Z,80.7
2022-12-11T10:26:34.078Z,80.7
2022-12-11T10:27:34.072Z,80.6
2022-12-11T10:28:34.088Z,80.7
2022-12-11T10:29:34.070Z,80.7
2022-12-11T10:30:34.741Z,80.9
2022-12-11T10:31:34.164Z,80.9
2022-12-11T10:32:34.125Z,80.6
2022-12-11T10:33:34.073Z,80.6
2022-12-11T10:34:34.080Z,80.5
2022-12-11T10:35:34.087Z,80.5
2022-12-11T10:36:34.060Z,80.7
2022-12-11T10:37:34.061Z,80.5
2022-12-11T10:38:34.071Z,80.4
2022-12-11T10:39:34.066Z,80.4
2022-12-11T10:40:34.062Z,80.3
2022-12-11T10:41:34.071Z,80.3
2022-12-11T10:42:34.052Z,80.4
2022-12-11T10:43:34.084Z,80.2
2022-12-11T10:44:34.089Z,80.2
2022-12-11T10:45:34.064Z,80.3
2022-12-11T10:46:34.107Z,80.4
2022-12-11T10:47:34.058Z,80.3
2022-12-11T10:48:34.086Z,80
2022-12-11T10:49:34.090Z,79.9
2022-12-11T10:50:34.069Z,80
2022-12-11T10:51:34.054Z,80.2
2022-12-11T10:52:34.059Z,80
2022-12-11T10:53:34.066Z,80.1
2022-12-11T10:54:34.050Z,80
2022-12-11T10:55:34.050Z,80
2022-12-11T10:56:34.061Z,80.1
2022-12-11T10:57:34.062Z,80.2
2022-12-11T10:58:34.343Z,80
2022-12-11T10:59:34.060Z,80.1
2022-12-11T11:00:34.063Z,80
2022-12-11T11:01:34.102Z,80
2022-12-11T11:02:34.160Z,79.9
2022-12-11T11:03:34.068Z,79.7
2022-12-11T11:04:34.068Z,79.9
2022-12-11T11:05:34.054Z,79.6
2022-12-11T11:06:34.064Z,79.6
2022-12-11T11:07:34.053Z,79.3
2022-12-11T11:08:34.066Z,79.5
2022-12-11T11:09:34.070Z,79.7
2022-12-11T11:10:34.054Z,79.8
2022-12-11T11:11:34.497Z,79.4
2022-12-11T11:12:34.046Z,79.4
2022-12-11T11:13:34.068Z,79.3
2022-12-11T11:14:34.050Z,79.4
2022-12-11T11:15:34.075Z,79.5
2022-12-11T11:16:34.070Z,79.6
2022-12-11T11:17:35.444Z,79.5
2022-12-11T11:18:34.094Z,79.5
2022-12-11T11:19:34.141Z,79.3
2022-12-11T11:20:34.059Z,79.3
2022-12-11T11:21:34.063Z,79.5
2022-12-11T11:22:34.087Z,79.5
2022-12-11T11:23:37.733Z,79.4
2022-12-11T11:24:34.042Z,79.3
2022-12-11T11:25:34.047Z,79.2
2022-12-11T11:27:04.356Z,79.3
2022-12-11T11:27:34.047Z,79.3
2022-12-11T11:28:34.048Z,78.3
2022-12-11T11:29:34.054Z,77.5
2022-12-11T11:30:34.057Z,77.8
2022-12-11T11:31:34.155Z,77.8
2022-12-11T11:32:34.051Z,78.1
2022-12-11T11:33:34.078Z,77.7
2022-12-11T11:34:34.076Z,77.9
2022-12-11T11:35:34.058Z,78.1
2022-12-11T11:36:34.084Z,77.4
2022-12-11T11:37:34.059Z,77.5
2022-12-11T11:38:34.064Z,77.2
2022-12-11T11:39:34.042Z,76.9
2022-12-11T11:40:34.064Z,77.1
2022-12-11T11:41:34.092Z,77.3
2022-12-11T11:42:34.082Z,77.4
2022-12-11T11:43:34.048Z,77.2
2022-12-11T11:44:34.076Z,77.5
2022-12-11T11:45:34.048Z,77.5
2022-12-11T11:46:34.129Z,77.6
2022-12-11T11:47:34.064Z,77.7
2022-12-11T11:48:34.107Z,77.9
2022-12-11T11:49:34.066Z,77.1
2022-12-11T11:50:34.054Z,76.8
2022-12-11T11:51:34.055Z,76
2022-12-11T11:52:34.044Z,76.1
2022-12-11T11:53:34.060Z,76.2
2022-12-11T11:54:34.065Z,76.3
2022-12-11T11:55:34.042Z,76.4
2022-12-11T11:56:34.048Z,76.8
2022-12-11T11:57:34.045Z,76.9
2022-12-11T11:58:34.058Z,76.6
2022-12-11T11:59:34.057Z,76.4
2022-12-11T12:00:44.083Z,75.8
2022-12-11T12:01:34.062Z,75.9
2022-12-11T12:02:34.119Z,75.9
2022-12-11T12:03:34.060Z,75.8
2022-12-11T12:04:34.060Z,76.1
2022-12-11T12:05:34.054Z,76.1
2022-12-11T12:06:34.037Z,76.4
2022-12-11T12:07:34.088Z,75.7
2022-12-11T12:08:34.089Z,75.9
2022-12-11T12:09:34.232Z,75.4
2022-12-11T12:10:34.047Z,75.3
2022-12-11T12:11:34.059Z,75.3
2022-12-11T12:12:34.392Z,75.4
2022-12-11T12:13:50.450Z,74.6
2022-12-11T12:14:53.801Z,74.4
2022-12-11T12:15:34.084Z,74.7
2022-12-11T12:17:03.716Z,75
2022-12-11T12:17:34.097Z,74.9
2022-12-11T12:18:34.060Z,75.2
2022-12-11T12:19:34.050Z,75.5
2022-12-11T12:20:34.058Z,75.3
2022-12-11T12:21:34.050Z,75.1
2022-12-11T12:22:34.051Z,75.2
2022-12-11T12:23:36.888Z,75.5
2022-12-11T12:24:34.063Z,74.9
2022-12-11T12:25:34.060Z,74.7
2022-12-11T12:26:34.069Z,74.1
2022-12-11T12:27:55.976Z,74.3
2022-12-11T12:28:34.082Z,74.5
2022-12-11T12:29:34.048Z,74.4
2022-12-11T12:30:34.082Z,75.1
2022-12-11T12:31:34.115Z,75.4
2022-12-11T12:32:34.061Z,75.3
2022-12-11T12:33:34.057Z,75.2
2022-12-11T12:34:34.041Z,75.5
2022-12-11T12:35:34.048Z,75.8
2022-12-11T12:36:34.046Z,75.9
2022-12-11T12:37:34.070Z,75.6
2022-12-11T12:38:34.056Z,75.7
2022-12-11T12:39:34.134Z,75.8
2022-12-11T12:40:34.042Z,75.8
2022-12-11T12:41:34.051Z,75.3
2022-12-11T12:42:34.058Z,75.4
2022-12-11T12:43:34.139Z,75.1
2022-12-11T12:44:34.056Z,75.3
2022-12-11T12:45:34.148Z,75.5
2022-12-11T12:46:34.044Z,75.4
2022-12-11T12:47:34.037Z,75.2
2022-12-11T12:48:34.079Z,75.5
2022-12-11T12:49:34.064Z,75.5
2022-12-11T12:50:34.039Z,75.1
2022-12-11T12:51:34.040Z,75.2
2022-12-11T12:52:34.050Z,75.2
2022-12-11T12:53:34.043Z,75.5
2022-12-11T12:54:34.042Z,75.8
2022-12-11T12:55:34.037Z,75.9
2022-12-11T12:56:34.050Z,75.9
2022-12-11T12:57:34.047Z,76
2022-12-11T12:58:34.066Z,76
2022-12-11T12:59:34.034Z,75.1
2022-12-11T13:00:50.075Z,74.9
2022-12-11T13:01:34.162Z,75.1
2022-12-11T13:02:34.115Z,74.8
2022-12-11T13:03:34.058Z,75.1
2022-12-11T13:04:55.173Z,75.4
2022-12-11T13:05:34.061Z,75.3
2022-12-11T13:06:34.067Z,74.8
2022-12-11T13:07:34.070Z,74.9
2022-12-11T13:08:34.162Z,74.9
2022-12-11T13:09:34.036Z,74.8
2022-12-11T13:10:34.049Z,74.9
2022-12-11T13:11:34.071Z,75.2
2022-12-11T13:12:34.041Z,75.2
2022-12-11T13:13:34.028Z,75.1
2022-12-11T13:14:34.055Z,74.5
2022-12-11T13:15:34.111Z,74.6
2022-12-11T13:16:34.069Z,74.6
2022-12-11T13:17:34.036Z,75.1
2022-12-11T13:18:34.059Z,75.1
2022-12-11T13:19:37.736Z,75.3
2022-12-11T13:20:34.042Z,74.6
2022-12-11T13:21:34.049Z,74.9
2022-12-11T13:22:34.050Z,75
2022-12-11T13:23:34.040Z,75.2
2022-12-11T13:24:34.037Z,74.5
2022-12-11T13:25:37.481Z,74.6
2022-12-11T13:26:34.046Z,75
2022-12-11T13:27:34.037Z,74.7
2022-12-11T13:28:34.048Z,74.5
2022-12-11T13:29:34.043Z,74.3
2022-12-11T13:30:34.050Z,74.3
2022-12-11T13:31:34.104Z,74.6